Time;durP1;ratioP1;P1;durP2;ratioP2;P2;SDS_P1;SDS_P2;PMS_P1;PMS_P2;Temp;Humidity;BMP_temperature;BMP_pressure;BME280_temperature;BME280_humidity;BME280_pressure;Samples;Min_cycle;Max_cycle;Signal;HPM_P1;HPM_P2
2022/07/23 00:02:22;;;;;;;7.45;2.65;;;22.00;99.90;;;;;;4985151;28;20097;-95
2022/07/23 00:04:48;;;;;;;11.45;2.20;;;22.00;99.90;;;;;;4972965;28;20031;-95
2022/07/23 00:07:13;;;;;;;12.32;2.45;;;22.00;99.90;;;;;;4974880;28;20026;-95
2022/07/23 00:09:39;;;;;;;9.20;2.72;;;21.90;99.90;;;;;;4974650;28;20392;-94
2022/07/23 00:12:05;;;;;;;10.10;3.55;;;21.90;99.90;;;;;;4975111;28;20054;-94
2022/07/23 00:14:31;;;;;;;6.07;2.78;;;22.00;99.90;;;;;;4974550;28;20034;-94
2022/07/23 00:16:57;;;;;;;12.00;2.92;;;22.00;99.90;;;;;;4974660;28;20027;-93
2022/07/23 00:19:22;;;;;;;7.57;2.88;;;22.00;99.90;;;;;;4991483;28;20077;-94
2022/07/23 00:21:48;;;;;;;6.88;2.72;;;22.00;99.90;;;;;;4994151;28;20038;-94
2022/07/23 00:24:13;;;;;;;11.98;2.25;;;21.90;99.90;;;;;;4994538;28;20117;-95
2022/07/23 00:26:39;;;;;;;5.20;2.58;;;22.00;99.90;;;;;;4995778;28;20090;-94
2022/07/23 00:29:05;;;;;;;3.78;2.28;;;22.00;99.90;;;;;;4994848;28;20062;-95
2022/07/23 00:31:30;;;;;;;7.35;2.53;;;22.00;99.90;;;;;;4994748;28;20086;-95
2022/07/23 00:33:56;;;;;;;6.65;2.42;;;22.00;99.90;;;;;;4996660;28;20026;-95
2022/07/23 00:36:23;;;;;;;6.95;2.63;;;22.00;99.90;;;;;;4993347;28;20062;-94
2022/07/23 00:38:51;;;;;;;7.10;2.88;;;22.00;99.90;;;;;;4978807;28;20022;-94
2022/07/23 00:41:20;;;;;;;9.75;3.25;;;22.00;99.90;;;;;;4974968;28;20027;-96
2022/07/23 00:43:48;;;;;;;13.20;2.63;;;22.10;99.90;;;;;;4983030;28;20027;-96
2022/07/23 00:46:19;;;;;;;9.73;4.43;;;22.20;99.90;;;;;;4977159;28;20055;-94
2022/07/23 00:48:45;;;;;;;12.20;2.63;;;22.30;99.90;;;;;;4973772;28;20034;-94
2022/07/23 00:51:11;;;;;;;15.00;2.40;;;22.40;99.90;;;;;;4974362;28;20126;-93
2022/07/23 00:53:37;;;;;;;13.13;3.08;;;22.40;99.90;;;;;;4974244;28;20030;-94
2022/07/23 00:56:02;;;;;;;13.50;3.30;;;22.50;99.90;;;;;;4974441;28;20031;-93
2022/07/23 00:58:28;;;;;;;15.13;2.40;;;22.50;99.90;;;;;;4989946;28;20031;-96
2022/07/23 01:00:54;;;;;;;10.75;2.53;;;22.50;99.90;;;;;;4996890;28;20038;-96
2022/07/23 01:03:20;;;;;;;8.35;2.78;;;22.50;99.90;;;;;;5012606;28;20031;-96
2022/07/23 01:05:46;;;;;;;13.70;3.03;;;22.40;99.90;;;;;;5006427;28;20061;-95
2022/07/23 01:08:12;;;;;;;7.38;2.67;;;22.40;99.90;;;;;;5000717;28;20026;-96
2022/07/23 01:10:38;;;;;;;17.85;3.05;;;22.20;99.90;;;;;;5009566;28;20022;-96
2022/07/23 01:13:21;;;;;;;8.50;2.75;;;22.20;99.90;;;;;;5014375;28;20026;-96
2022/07/23 01:15:46;;;;;;;9.27;2.58;;;22.10;99.90;;;;;;4993362;28;20025;-93
2022/07/23 01:18:13;;;;;;;11.18;2.78;;;22.00;99.90;;;;;;4994118;28;20034;-96
2022/07/23 01:20:38;;;;;;;11.93;2.42;;;21.90;99.90;;;;;;4996583;28;20475;-96
2022/07/23 01:23:04;;;;;;;5.90;2.95;;;21.90;99.90;;;;;;4984400;28;20037;-96
2022/07/23 01:25:30;;;;;;;8.43;2.30;;;21.80;99.90;;;;;;4977133;28;20027;-95
2022/07/23 01:27:55;;;;;;;8.10;2.65;;;21.80;99.90;;;;;;4976343;28;20488;-95
2022/07/23 01:30:21;;;;;;;10.57;2.72;;;21.80;99.90;;;;;;4975437;28;20038;-96
2022/07/23 01:32:47;;;;;;;13.90;2.80;;;21.80;99.90;;;;;;4975653;28;20023;-92
2022/07/23 01:35:12;;;;;;;13.20;3.13;;;21.80;99.90;;;;;;4979646;28;20143;-96
2022/07/23 01:37:38;;;;;;;9.90;2.25;;;21.80;99.90;;;;;;4981281;28;20491;-96
2022/07/23 01:40:06;;;;;;;6.97;2.40;;;21.80;99.90;;;;;;4983515;28;20035;-96
2022/07/23 01:42:33;;;;;;;11.43;2.47;;;21.90;99.90;;;;;;4979934;28;20033;-96
2022/07/23 01:44:59;;;;;;;6.55;2.33;;;22.00;99.90;;;;;;4980874;28;20037;-96
2022/07/23 01:47:28;;;;;;;9.27;2.97;;;22.00;99.90;;;;;;4971772;28;20420;-96
2022/07/23 01:49:53;;;;;;;9.55;2.50;;;22.00;99.90;;;;;;4987340;28;20046;-96
2022/07/23 01:52:19;;;;;;;8.93;2.03;;;22.00;99.90;;;;;;4985936;28;20034;-96
2022/07/23 01:54:45;;;;;;;6.30;2.45;;;21.90;99.90;;;;;;4980082;28;20025;-95
2022/07/23 01:57:10;;;;;;;5.95;2.80;;;21.90;99.90;;;;;;4977643;28;20030;-95
2022/07/23 01:59:36;;;;;;;10.18;2.30;;;21.90;99.90;;;;;;4978731;28;20035;-95
2022/07/23 02:02:03;;;;;;;8.05;2.60;;;21.90;99.90;;;;;;4983282;28;20081;-96
2022/07/23 02:04:29;;;;;;;9.80;2.55;;;21.80;99.90;;;;;;4985926;28;20499;-96
2022/07/23 02:06:55;;;;;;;10.20;2.63;;;21.80;99.90;;;;;;4980064;28;20034;-96
2022/07/23 02:09:21;;;;;;;9.57;2.72;;;21.70;99.90;;;;;;4978565;28;20070;-96
2022/07/23 02:11:46;;;;;;;6.82;3.38;;;21.70;99.90;;;;;;4980164;28;20038;-96
2022/07/23 02:14:12;;;;;;;8.57;3.22;;;21.60;99.90;;;;;;4979553;28;20038;-96
2022/07/23 02:16:38;;;;;;;5.50;2.78;;;21.60;99.90;;;;;;4982749;28;20030;-96
2022/07/23 02:19:04;;;;;;;5.78;2.50;;;21.60;99.90;;;;;;4976680;28;20026;-94
2022/07/23 02:21:29;;;;;;;10.77;2.47;;;21.60;99.90;;;;;;4967466;28;20491;-94
2022/07/23 02:23:55;;;;;;;9.20;2.40;;;21.60;99.90;;;;;;4980506;28;20062;-95
2022/07/23 02:26:21;;;;;;;10.48;3.20;;;21.50;99.90;;;;;;4974042;28;20404;-94
2022/07/23 02:28:47;;;;;;;7.68;2.58;;;21.50;99.90;;;;;;4973913;28;20128;-94
2022/07/23 02:31:12;;;;;;;6.30;2.80;;;21.50;99.90;;;;;;4969351;28;20050;-94
2022/07/23 02:33:38;;;;;;;13.90;3.05;;;21.50;99.90;;;;;;4963577;28;20076;-94
2022/07/23 02:36:04;;;;;;;12.43;2.90;;;21.60;99.90;;;;;;4985781;28;20513;-95
2022/07/23 02:38:30;;;;;;;7.50;2.67;;;21.50;99.90;;;;;;4988463;28;20067;-95
2022/07/23 02:40:56;;;;;;;9.93;3.10;;;21.50;99.90;;;;;;4988700;28;20495;-95
2022/07/23 02:43:21;;;;;;;8.77;2.85;;;21.40;99.90;;;;;;4971927;28;20019;-95
2022/07/23 02:45:50;;;;;;;9.00;2.83;;;21.40;99.90;;;;;;4969012;28;20697;-95
2022/07/23 02:48:15;;;;;;;9.00;3.05;;;21.40;99.90;;;;;;4969889;28;20022;-95
2022/07/23 02:50:41;;;;;;;8.00;2.70;;;21.40;99.90;;;;;;4969179;28;20499;-95
2022/07/23 02:53:07;;;;;;;13.07;2.83;;;21.40;99.90;;;;;;4969663;28;20030;-95
2022/07/23 02:55:33;;;;;;;14.00;3.13;;;21.40;99.90;;;;;;4969030;28;20519;-94
2022/07/23 02:57:58;;;;;;;10.93;2.67;;;21.40;99.90;;;;;;4970422;28;20026;-95
2022/07/23 03:00:24;;;;;;;8.30;2.22;;;21.40;99.90;;;;;;4969495;28;20046;-95
2022/07/23 03:03:15;;;;;;;7.95;2.90;;;21.50;99.90;;;;;;4980706;28;20544;-96
2022/07/23 03:05:43;;;;;;;4.57;2.75;;;21.50;99.90;;;;;;4997625;28;20042;-94
2022/07/23 03:08:09;;;;;;;8.45;3.08;;;21.50;99.90;;;;;;4973815;28;20023;-96
2022/07/23 03:10:34;;;;;;;14.40;3.00;;;21.50;99.90;;;;;;4983348;28;20042;-96
2022/07/23 03:13:00;;;;;;;10.40;2.42;;;21.50;99.90;;;;;;5006318;28;20049;-96
2022/07/23 03:15:26;;;;;;;13.15;2.72;;;21.50;99.90;;;;;;5000905;28;20045;-96
2022/07/23 03:17:51;;;;;;;12.07;3.65;;;21.60;99.90;;;;;;4989243;28;20023;-96
2022/07/23 03:20:17;;;;;;;6.03;2.80;;;21.60;99.90;;;;;;4973081;28;20376;-96
2022/07/23 03:22:43;;;;;;;8.65;2.65;;;21.60;99.90;;;;;;4969398;28;20022;-94
2022/07/23 03:25:11;;;;;;;17.35;2.75;;;21.70;99.90;;;;;;4983497;28;20034;-96
2022/07/23 03:27:37;;;;;;;13.68;2.95;;;21.70;99.90;;;;;;4981323;28;20023;-96
2022/07/23 03:30:03;;;;;;;8.63;2.30;;;21.60;99.90;;;;;;4981663;28;20035;-93
2022/07/23 03:32:29;;;;;;;13.30;3.22;;;21.60;99.90;;;;;;4972296;28;20054;-95
2022/07/23 03:34:54;;;;;;;8.27;2.70;;;21.60;99.90;;;;;;4971563;28;20030;-94
2022/07/23 03:37:20;;;;;;;9.25;2.75;;;21.70;99.90;;;;;;4971935;28;20447;-92
2022/07/23 03:39:46;;;;;;;11.63;3.00;;;21.70;99.90;;;;;;4970376;28;20035;-95
2022/07/23 03:42:12;;;;;;;7.68;2.53;;;21.80;99.90;;;;;;4970884;28;20034;-90
2022/07/23 03:44:38;;;;;;;8.05;2.83;;;21.80;99.90;;;;;;4969452;28;20034;-92
2022/07/23 03:47:05;;;;;;;13.15;2.70;;;21.80;99.90;;;;;;4969564;28;20296;-92
2022/07/23 03:49:31;;;;;;;6.30;2.30;;;21.90;99.90;;;;;;4970924;28;20049;-92
2022/07/23 03:51:57;;;;;;;11.35;3.03;;;21.90;99.90;;;;;;4976178;28;20046;-90
2022/07/23 03:54:23;;;;;;;7.25;2.53;;;22.10;99.90;;;;;;4985467;28;20011;-92
2022/07/23 03:56:48;;;;;;;7.50;2.38;;;22.10;99.90;;;;;;4983679;28;20045;-93
2022/07/23 03:59:14;;;;;;;9.95;3.22;;;22.10;99.90;;;;;;4980767;28;20038;-92
2022/07/23 04:01:40;;;;;;;7.38;2.33;;;22.20;99.90;;;;;;4969008;28;20116;-91
2022/07/23 04:04:06;;;;;;;13.75;2.72;;;22.20;99.90;;;;;;4969532;28;20027;-91
2022/07/23 04:06:32;;;;;;;4.53;2.58;;;22.40;99.90;;;;;;4974201;28;20031;-96
2022/07/23 04:08:58;;;;;;;8.05;2.92;;;22.40;99.90;;;;;;4970816;28;20042;-94
2022/07/23 04:11:24;;;;;;;13.57;2.83;;;22.60;99.90;;;;;;4968958;28;20053;-92
2022/07/23 04:13:50;;;;;;;4.97;2.65;;;22.70;99.90;;;;;;4970643;28;20050;-91
2022/07/23 04:16:15;;;;;;;10.38;2.83;;;22.90;99.90;;;;;;4968911;28;20122;-91
2022/07/23 04:18:41;;;;;;;6.80;2.40;;;23.10;99.90;;;;;;4968635;28;20023;-91
2022/07/23 04:21:06;;;;;;;9.20;2.78;;;23.20;99.90;;;;;;4969824;28;20027;-91
2022/07/23 04:23:32;;;;;;;10.13;2.65;;;23.30;99.90;;;;;;4973434;28;20022;-91
2022/07/23 04:25:58;;;;;;;7.63;2.70;;;23.40;99.90;;;;;;4971892;28;20035;-94
2022/07/23 04:28:23;;;;;;;13.00;3.65;;;23.60;99.90;;;;;;4961489;28;20034;-91
2022/07/23 04:30:49;;;;;;;11.95;3.05;;;23.80;99.90;;;;;;4976883;28;20388;-94
2022/07/23 04:33:15;;;;;;;8.38;2.70;;;24.00;99.90;;;;;;4977206;28;20118;-93
2022/07/23 04:35:40;;;;;;;10.23;3.65;;;24.20;99.90;;;;;;4985671;28;20038;-95
2022/07/23 04:38:06;;;;;;;6.07;2.47;;;24.40;99.90;;;;;;4976672;28;20027;-93
2022/07/23 04:40:31;;;;;;;8.93;3.03;;;24.50;99.90;;;;;;4973907;28;20089;-93
2022/07/23 04:42:57;;;;;;;10.10;3.08;;;24.70;99.90;;;;;;4974143;28;20031;-93
2022/07/23 04:45:24;;;;;;;9.90;2.63;;;24.80;99.90;;;;;;4974371;28;20483;-90
2022/07/23 04:47:50;;;;;;;8.68;2.72;;;24.90;99.90;;;;;;4974412;28;20038;-92
2022/07/23 04:50:19;;;;;;;9.38;2.88;;;25.00;99.90;;;;;;4974631;28;20468;-90
2022/07/23 04:52:45;;;;;;;9.23;2.90;;;25.20;99.90;;;;;;4971447;28;20027;-90
2022/07/23 04:55:11;;;;;;;7.32;2.63;;;25.30;99.90;;;;;;4974279;28;20023;-90
2022/07/23 04:57:36;;;;;;;11.82;2.47;;;25.50;99.90;;;;;;4974878;28;20041;-90
2022/07/23 05:00:03;;;;;;;9.25;3.10;;;25.70;99.90;;;;;;4974208;28;20031;-90
2022/07/23 05:02:29;;;;;;;11.95;3.42;;;25.90;99.90;;;;;;4983434;28;20597;-89
2022/07/23 05:04:55;;;;;;;8.60;2.90;;;26.10;99.80;;;;;;4993374;28;20182;-90
2022/07/23 05:07:21;;;;;;;6.57;3.85;;;26.30;99.80;;;;;;4993401;28;20130;-89
2022/07/23 05:09:46;;;;;;;10.27;3.70;;;26.60;99.50;;;;;;4988447;28;20118;-91
2022/07/23 05:12:12;;;;;;;11.15;3.42;;;26.80;99.00;;;;;;4973204;28;20031;-90
2022/07/23 05:14:38;;;;;;;5.82;2.35;;;27.00;98.40;;;;;;4973722;28;20037;-90
2022/07/23 05:17:03;;;;;;;8.13;2.95;;;27.20;97.90;;;;;;4973417;28;20033;-89
2022/07/23 05:19:29;;;;;;;10.35;2.72;;;27.40;97.10;;;;;;4991088;28;20026;-90
2022/07/23 05:21:55;;;;;;;8.98;3.15;;;27.60;97.10;;;;;;4992997;28;20041;-90
2022/07/23 05:24:20;;;;;;;10.85;3.28;;;28.00;96.80;;;;;;4993066;28;20034;-91
2022/07/23 05:26:46;;;;;;;5.97;3.00;;;28.20;96.50;;;;;;4993191;28;20587;-91
2022/07/23 05:29:11;;;;;;;7.93;3.03;;;28.40;96.00;;;;;;4992911;28;20546;-91
2022/07/23 05:31:37;;;;;;;7.20;2.92;;;28.50;95.70;;;;;;4973500;28;20023;-90
2022/07/23 05:34:03;;;;;;;10.95;2.97;;;28.60;94.70;;;;;;4973743;28;20146;-94
2022/07/23 05:36:31;;;;;;;9.93;4.05;;;28.70;94.30;;;;;;4973606;28;20015;-94
2022/07/23 05:38:57;;;;;;;7.63;3.13;;;28.80;94.10;;;;;;4973267;28;20027;-92
2022/07/23 05:41:22;;;;;;;5.55;2.95;;;28.80;93.90;;;;;;4974482;28;20038;-92
2022/07/23 05:43:48;;;;;;;11.35;2.92;;;28.90;93.20;;;;;;4974731;28;20035;-92
2022/07/23 05:46:13;;;;;;;7.80;3.00;;;29.10;92.80;;;;;;4984043;28;20031;-95
2022/07/23 05:48:39;;;;;;;5.88;2.83;;;29.20;92.90;;;;;;4993292;28;20042;-92
2022/07/23 05:51:06;;;;;;;5.40;3.17;;;29.30;92.70;;;;;;4994610;28;20077;-93
2022/07/23 05:53:33;;;;;;;7.85;3.15;;;29.40;92.50;;;;;;4990959;28;20050;-91
2022/07/23 05:55:58;;;;;;;7.85;2.78;;;29.80;91.10;;;;;;4968328;28;20030;-92
2022/07/23 05:58:24;;;;;;;6.07;2.85;;;30.40;89.30;;;;;;4973068;28;20023;-91
2022/07/23 06:00:50;;;;;;;9.98;3.28;;;31.20;86.70;;;;;;4974776;28;20098;-90
2022/07/23 06:03:15;;;;;;;10.13;2.63;;;31.80;83.10;;;;;;4974062;28;20023;-91
2022/07/23 06:05:41;;;;;;;10.98;2.72;;;32.30;75.30;;;;;;4975205;28;20054;-90
2022/07/23 06:08:07;;;;;;;9.55;3.15;;;32.90;68.50;;;;;;4975305;28;20037;-91
2022/07/23 06:10:32;;;;;;;11.13;3.22;;;33.50;65.60;;;;;;4972425;28;20027;-92
2022/07/23 06:12:58;;;;;;;9.85;2.55;;;34.00;62.20;;;;;;4972728;28;20030;-91
2022/07/23 06:15:24;;;;;;;13.73;3.22;;;34.70;61.50;;;;;;4972862;28;20023;-90
2022/07/23 06:17:49;;;;;;;13.68;2.80;;;35.60;54.80;;;;;;4972337;28;20031;-90
2022/07/23 06:20:15;;;;;;;11.13;3.22;;;36.50;49.30;;;;;;4973903;28;20158;-91
2022/07/23 06:22:41;;;;;;;9.43;3.20;;;37.60;47.20;;;;;;4972114;28;20030;-90
2022/07/23 06:25:08;;;;;;;11.27;3.10;;;38.20;45.10;;;;;;4972543;28;20023;-91
2022/07/23 06:27:34;;;;;;;8.95;2.95;;;38.80;42.20;;;;;;4973138;28;20207;-90
2022/07/23 06:29:59;;;;;;;13.15;3.05;;;39.30;40.40;;;;;;4972287;28;20483;-91
2022/07/23 06:32:25;;;;;;;14.25;3.67;;;39.80;40.40;;;;;;4972524;28;20054;-89
2022/07/23 06:34:51;;;;;;;8.82;2.70;;;40.10;38.90;;;;;;4971643;28;20027;-92
2022/07/23 06:37:16;;;;;;;8.23;3.08;;;40.30;37.80;;;;;;4972475;28;20497;-91
2022/07/23 06:39:42;;;;;;;12.27;3.40;;;40.80;36.60;;;;;;4972040;28;20037;-90
2022/07/23 06:42:08;;;;;;;11.77;2.97;;;40.90;36.00;;;;;;4971825;28;20480;-89
2022/07/23 06:44:33;;;;;;;12.30;3.00;;;40.70;35.40;;;;;;4972348;28;20030;-90
2022/07/23 06:46:59;;;;;;;10.77;3.92;;;40.80;34.10;;;;;;4971444;28;20038;-90
2022/07/23 06:49:24;;;;;;;18.88;4.13;;;40.90;33.60;;;;;;4972368;28;20101;-90
2022/07/23 06:51:50;;;;;;;10.15;3.38;;;41.00;32.20;;;;;;4972278;28;20029;-88
2022/07/23 06:54:16;;;;;;;7.18;3.15;;;41.10;32.90;;;;;;4971682;28;20050;-90
2022/07/23 06:56:43;;;;;;;10.75;3.35;;;41.20;30.70;;;;;;4971959;28;20089;-89
2022/07/23 06:59:09;;;;;;;7.85;2.92;;;41.40;30.90;;;;;;4971957;28;20031;-90
2022/07/23 07:01:34;;;;;;;9.70;3.13;;;41.50;30.90;;;;;;4971216;28;20050;-91
2022/07/23 07:04:00;;;;;;;13.75;2.78;;;41.30;31.70;;;;;;4972727;28;20026;-89
2022/07/23 07:06:25;;;;;;;11.30;3.10;;;41.60;31.10;;;;;;4971795;28;20023;-91
2022/07/23 07:08:51;;;;;;;7.45;3.03;;;41.70;30.40;;;;;;4971995;28;20038;-90
2022/07/23 07:11:17;;;;;;;15.23;3.33;;;41.90;29.70;;;;;;4971338;28;20043;-90
2022/07/23 07:13:42;;;;;;;6.05;3.03;;;41.80;31.30;;;;;;4970896;28;20023;-89
2022/07/23 07:16:08;;;;;;;11.23;3.13;;;41.90;30.80;;;;;;4971928;28;20447;-89
2022/07/23 07:18:34;;;;;;;9.65;2.70;;;41.90;30.10;;;;;;4968959;28;20031;-89
2022/07/23 07:20:59;;;;;;;17.00;3.97;;;42.00;29.90;;;;;;4968943;28;20411;-89
2022/07/23 07:23:25;;;;;;;18.70;3.60;;;42.20;30.50;;;;;;4970271;28;20506;-89
2022/07/23 07:25:51;;;;;;;13.70;3.53;;;42.20;30.40;;;;;;4971669;28;20122;-89
2022/07/23 07:28:16;;;;;;;10.55;3.10;;;42.40;30.20;;;;;;4971056;28;20073;-90
2022/07/23 07:30:42;;;;;;;7.43;3.17;;;42.40;30.10;;;;;;4971798;28;20037;-89
2022/07/23 07:33:08;;;;;;;13.10;3.17;;;42.00;29.50;;;;;;4970589;28;20035;-89
2022/07/23 07:35:33;;;;;;;14.93;3.05;;;42.10;30.00;;;;;;4972132;28;20027;-90
2022/07/23 07:37:59;;;;;;;9.27;2.85;;;42.20;29.10;;;;;;4971494;28;20038;-89
2022/07/23 07:40:26;;;;;;;12.93;3.08;;;42.70;27.90;;;;;;4972095;28;20035;-89
2022/07/23 07:42:53;;;;;;;10.35;3.10;;;42.70;27.60;;;;;;4971899;28;20078;-89
2022/07/23 07:45:23;;;;;;;11.73;3.05;;;42.00;28.20;;;;;;4972109;28;20030;-89
2022/07/23 07:47:49;;;;;;;6.88;2.72;;;41.90;28.00;;;;;;4971613;28;20365;-90
2022/07/23 07:50:15;;;;;;;4.78;2.80;;;41.70;28.50;;;;;;4970857;28;20506;-88
2022/07/23 07:52:42;;;;;;;16.98;3.25;;;41.70;30.00;;;;;;4971995;28;20023;-89
2022/07/23 07:55:09;;;;;;;13.50;3.28;;;41.70;30.60;;;;;;4971444;28;20038;-88
2022/07/23 07:57:35;;;;;;;14.95;3.33;;;41.80;30.30;;;;;;4972418;28;20118;-89
2022/07/23 08:00:01;;;;;;;10.00;2.90;;;42.00;30.00;;;;;;4976479;28;20085;-89
2022/07/23 08:02:26;;;;;;;9.68;3.13;;;42.20;29.80;;;;;;4975300;28;20043;-89
2022/07/23 08:04:52;;;;;;;12.57;3.08;;;42.10;30.10;;;;;;4981520;28;20054;-88
2022/07/23 08:07:19;;;;;;;19.80;3.35;;;42.40;30.60;;;;;;4997339;28;20023;-89
2022/07/23 08:09:44;;;;;;;18.20;3.20;;;42.60;30.00;;;;;;4997691;28;20015;-88
2022/07/23 08:12:10;;;;;;;8.13;2.85;;;42.50;30.00;;;;;;4986408;28;20077;-87
2022/07/23 08:14:35;;;;;;;10.98;3.13;;;42.80;29.80;;;;;;4977070;28;20031;-89
2022/07/23 08:17:01;;;;;;;9.95;3.40;;;43.00;29.40;;;;;;4976433;28;20037;-89
2022/07/23 08:19:27;;;;;;;6.07;2.85;;;43.10;28.50;;;;;;4973960;28;20046;-88
2022/07/23 08:21:52;;;;;;;12.05;2.88;;;43.20;29.10;;;;;;4974632;28;20027;-89
2022/07/23 08:24:18;;;;;;;7.78;3.08;;;43.40;29.80;;;;;;4974937;28;20121;-89
2022/07/23 08:26:44;;;;;;;18.13;3.88;;;43.20;29.50;;;;;;4969234;28;20019;-89
2022/07/23 08:29:10;;;;;;;11.77;3.22;;;43.40;29.10;;;;;;4973436;28;20484;-88
2022/07/23 08:31:35;;;;;;;12.57;3.30;;;43.50;29.40;;;;;;4974076;28;20483;-88
2022/07/23 08:34:02;;;;;;;13.30;3.85;;;43.50;29.20;;;;;;4970220;28;20019;-89
2022/07/23 08:36:28;;;;;;;9.95;3.25;;;43.40;29.10;;;;;;4954704;29;20119;-88
2022/07/23 08:38:57;;;;;;;14.88;3.22;;;43.50;30.00;;;;;;4982085;28;20219;-89
2022/07/23 08:41:22;;;;;;;7.43;3.20;;;43.60;29.70;;;;;;4994560;28;20862;-88
2022/07/23 08:43:48;;;;;;;11.75;3.35;;;43.60;30.20;;;;;;4993576;28;20039;-88
2022/07/23 08:46:14;;;;;;;11.73;2.72;;;43.70;29.70;;;;;;4981052;28;20034;-87
2022/07/23 08:48:39;;;;;;;8.35;3.03;;;44.00;29.10;;;;;;4973196;28;20034;-90
2022/07/23 08:51:06;;;;;;;15.18;3.25;;;44.00;28.70;;;;;;4974352;28;20038;-88
2022/07/23 08:53:35;;;;;;;19.92;3.30;;;44.00;28.60;;;;;;4954141;29;20514;-89
2022/07/23 08:56:03;;;;;;;8.90;3.00;;;43.90;29.00;;;;;;4954954;29;20028;-87
2022/07/23 08:58:29;;;;;;;9.07;3.47;;;43.80;28.60;;;;;;4963661;28;20026;-88
2022/07/23 09:00:56;;;;;;;11.70;3.35;;;43.60;28.70;;;;;;4973315;28;20062;-88
2022/07/23 09:03:29;;;;;;;15.10;4.13;;;43.70;28.70;;;;;;4972770;28;20015;-87
2022/07/23 09:05:56;;;;;;;13.20;2.97;;;43.70;27.80;;;;;;4974843;28;20026;-88
2022/07/23 09:08:44;;;;;;;9.38;2.80;;;43.70;27.50;;;;;;4973607;28;20113;-88
2022/07/23 09:11:16;;;;;;;8.60;3.70;;;43.70;28.10;;;;;;4972630;28;20183;-88
2022/07/23 09:13:53;;;;;;;8.75;3.20;;;43.70;29.20;;;;;;4972039;28;20157;-86
2022/07/23 09:16:31;;;;;;;10.35;3.22;;;43.90;28.40;;;;;;4972326;28;20540;-89
2022/07/23 09:18:58;;;;;;;4.28;2.67;;;44.20;27.40;;;;;;4972861;28;20095;-88
2022/07/23 09:21:28;;;;;;;6.35;3.10;;;44.20;26.70;;;;;;4972614;28;20031;-87
2022/07/23 09:24:16;;;;;;;10.52;2.95;;;44.00;27.70;;;;;;4973197;28;20061;-88
2022/07/23 09:26:47;;;;;;;8.98;2.72;;;44.20;26.70;;;;;;4973389;28;20034;-88
2022/07/23 09:29:24;;;;;;;9.73;2.85;;;44.00;27.10;;;;;;4973045;28;20488;-88
2022/07/23 09:31:55;;;;;;;7.68;3.05;;;43.90;26.90;;;;;;4973289;28;20037;-88
2022/07/23 09:34:21;;;;;;;8.30;2.97;;;43.90;26.80;;;;;;4973425;28;20038;-90
2022/07/23 09:36:47;;;;;;;3.97;2.53;;;44.20;27.00;;;;;;4972814;28;20031;-85
2022/07/23 09:39:17;;;;;;;13.82;2.70;;;44.20;26.50;;;;;;4971572;28;20046;-88
2022/07/23 09:41:46;;;;;;;12.65;2.80;;;44.30;26.60;;;;;;4973359;28;20030;-90
2022/07/23 09:44:17;;;;;;;8.82;2.75;;;44.00;26.60;;;;;;4973097;28;20026;-89
2022/07/23 09:46:48;;;;;;;9.02;3.35;;;44.10;26.50;;;;;;4972717;28;20031;-90
2022/07/23 09:49:22;;;;;;;11.88;3.35;;;44.00;26.20;;;;;;4972650;28;20027;-89
2022/07/23 09:51:55;;;;;;;20.60;3.72;;;43.50;25.80;;;;;;4974018;28;20023;-91
2022/07/23 09:54:28;;;;;;;15.70;2.80;;;43.30;27.80;;;;;;4974235;28;20031;-91
2022/07/23 09:56:54;;;;;;;12.02;3.13;;;43.30;27.40;;;;;;4972084;28;20035;-88
2022/07/23 09:59:25;;;;;;;11.35;3.55;;;43.50;27.20;;;;;;4972226;28;20065;-89
2022/07/23 10:01:54;;;;;;;12.90;2.83;;;43.40;25.90;;;;;;4971990;28;20053;-88
2022/07/23 10:04:20;;;;;;;11.93;2.90;;;43.20;26.30;;;;;;4970809;28;20049;-86
2022/07/23 10:06:47;;;;;;;10.63;2.90;;;43.30;26.60;;;;;;4970940;28;20034;-86
2022/07/23 10:09:21;;;;;;;7.05;2.65;;;43.50;26.80;;;;;;4971149;28;20031;-87
2022/07/23 10:11:48;;;;;;;8.00;2.70;;;43.40;27.30;;;;;;4970660;28;20031;-84
2022/07/23 10:14:14;;;;;;;7.47;2.88;;;43.20;27.10;;;;;;4971279;28;20762;-87
2022/07/23 10:16:40;;;;;;;13.60;2.50;;;42.80;27.00;;;;;;4972533;28;20109;-87
2022/07/23 10:19:06;;;;;;;5.85;2.50;;;42.20;27.40;;;;;;4970998;28;20089;-87
2022/07/23 10:21:41;;;;;;;10.55;2.63;;;41.70;27.90;;;;;;4970508;28;20117;-84
2022/07/23 10:24:21;;;;;;;15.73;2.55;;;41.50;28.80;;;;;;4971412;28;20365;-87
2022/07/23 10:26:52;;;;;;;10.23;2.67;;;41.00;28.70;;;;;;4971227;28;20027;-86
2022/07/23 10:29:41;;;;;;;9.98;3.25;;;40.50;28.80;;;;;;4971507;28;20400;-88
2022/07/23 10:32:26;;;;;;;12.35;3.20;;;40.10;27.70;;;;;;4959288;28;20058;-87
2022/07/23 10:35:12;;;;;;;12.38;3.35;;;39.90;28.00;;;;;;4970403;28;20033;-87
2022/07/23 10:37:41;;;;;;;14.60;2.97;;;39.60;30.20;;;;;;4970447;28;20047;-87
2022/07/23 10:40:22;;;;;;;11.35;2.55;;;39.50;29.40;;;;;;4969224;28;20031;-89
2022/07/23 10:42:51;;;;;;;8.13;3.13;;;39.40;29.20;;;;;;4968657;28;20030;-87
2022/07/23 10:45:34;;;;;;;3.63;2.22;;;39.20;30.00;;;;;;4971314;28;20027;-88
2022/07/23 10:48:16;;;;;;;5.95;2.58;;;39.00;29.00;;;;;;4971227;28;20471;-87
2022/07/23 10:51:03;;;;;;;6.95;2.72;;;38.70;30.00;;;;;;4972557;28;20654;-87
2022/07/23 10:53:51;;;;;;;7.72;2.70;;;38.70;30.60;;;;;;4971862;28;20035;-85
2022/07/23 10:56:58;;;;;;;7.78;3.15;;;38.70;29.30;;;;;;4970471;28;20034;-86
2022/07/23 10:59:24;;;;;;;7.05;2.97;;;38.50;29.50;;;;;;4967648;28;20050;-85
2022/07/23 11:01:49;;;;;;;6.50;3.40;;;38.40;29.80;;;;;;4970257;28;20113;-88
2022/07/23 11:04:15;;;;;;;3.83;2.53;;;38.20;30.10;;;;;;4970571;28;20159;-87
2022/07/23 11:06:50;;;;;;;4.10;2.60;;;38.20;30.10;;;;;;4972256;28;20031;-86
2022/07/23 11:09:46;;;;;;;5.00;3.03;;;38.30;30.80;;;;;;4971083;28;20510;-87
2022/07/23 11:12:20;;;;;;;7.38;2.83;;;38.20;29.40;;;;;;4970963;28;20027;-87
2022/07/23 11:15:07;;;;;;;7.78;3.28;;;38.20;30.20;;;;;;4971032;28;20081;-87
2022/07/23 11:17:43;;;;;;;10.55;3.05;;;38.20;29.70;;;;;;4970885;28;20511;-89
2022/07/23 11:20:09;;;;;;;16.52;3.40;;;38.10;29.60;;;;;;4971950;28;20035;-88
2022/07/23 11:22:36;;;;;;;9.32;2.97;;;38.10;30.40;;;;;;4971140;28;20022;-88
2022/07/23 11:25:02;;;;;;;8.18;2.80;;;38.00;30.20;;;;;;4970999;28;20026;-86
2022/07/23 11:27:42;;;;;;;9.60;2.45;;;38.00;32.20;;;;;;4970380;28;20530;-88
2022/07/23 11:30:10;;;;;;;8.63;2.83;;;38.10;32.00;;;;;;4971499;28;20041;-87
2022/07/23 11:32:40;;;;;;;14.88;3.15;;;38.30;31.70;;;;;;4973251;28;20081;-87
2022/07/23 11:35:21;;;;;;;7.30;3.15;;;38.30;31.40;;;;;;4974838;28;20114;-88
2022/07/23 11:37:47;;;;;;;8.25;3.25;;;38.40;31.20;;;;;;4974978;28;20031;-86
2022/07/23 11:40:16;;;;;;;8.20;3.25;;;38.30;30.70;;;;;;4974542;28;20065;-87
2022/07/23 11:42:53;;;;;;;5.85;3.83;;;38.30;31.00;;;;;;4975760;28;20035;-87
2022/07/23 11:45:19;;;;;;;6.85;3.70;;;38.30;30.70;;;;;;4977734;28;20117;-87
2022/07/23 11:47:45;;;;;;;4.78;3.05;;;38.30;30.70;;;;;;4993983;28;20061;-87
2022/07/23 11:50:11;;;;;;;12.77;3.50;;;38.30;30.20;;;;;;4994174;28;20065;-86
2022/07/23 11:52:36;;;;;;;8.50;3.80;;;38.40;30.00;;;;;;4994708;28;20026;-88
2022/07/23 11:55:07;;;;;;;10.10;4.07;;;38.40;30.00;;;;;;4978010;28;20037;-87
2022/07/23 11:57:36;;;;;;;4.93;3.85;;;38.50;30.00;;;;;;4976008;28;20050;-88
2022/07/23 12:00:24;;;;;;;6.35;4.00;;;38.40;29.70;;;;;;4974220;28;20109;-88
2022/07/23 12:03:00;;;;;;;9.38;4.75;;;38.40;29.40;;;;;;4935681;29;20071;-87
2022/07/23 12:05:35;;;;;;;15.63;4.82;;;38.50;28.70;;;;;;4936989;29;20036;-87
2022/07/23 12:08:05;;;;;;;6.93;4.28;;;38.40;28.10;;;;;;4936384;29;20452;-87
2022/07/23 12:10:41;;;;;;;7.30;3.67;;;38.40;28.30;;;;;;4935164;29;20032;-88
2022/07/23 12:13:16;;;;;;;14.70;3.80;;;38.40;29.10;;;;;;4936270;29;20024;-87
2022/07/23 12:15:51;;;;;;;14.35;3.97;;;38.40;29.30;;;;;;4935698;29;20051;-87
2022/07/23 12:18:22;;;;;;;6.63;4.07;;;38.50;29.00;;;;;;4936180;29;20533;-88
2022/07/23 12:20:52;;;;;;;6.93;3.50;;;38.40;28.40;;;;;;4937235;29;20047;-88
2022/07/23 12:23:19;;;;;;;6.05;3.90;;;38.40;29.50;;;;;;4935449;29;20027;-88
2022/07/23 12:25:46;;;;;;;17.48;4.38;;;38.30;28.80;;;;;;4935522;29;20089;-89
2022/07/23 12:28:12;;;;;;;11.25;3.85;;;38.40;28.10;;;;;;4939806;29;20028;-87
2022/07/23 12:30:41;;;;;;;7.50;3.10;;;38.30;28.00;;;;;;4942078;29;20489;-88
2022/07/23 12:33:09;;;;;;;6.55;2.50;;;38.30;29.10;;;;;;4939272;29;20024;-88
2022/07/23 12:35:44;;;;;;;8.25;3.50;;;38.30;29.00;;;;;;4935326;29;20031;-88
2022/07/23 12:38:12;;;;;;;6.22;3.70;;;38.30;29.40;;;;;;4935039;29;20122;-87
2022/07/23 12:40:47;;;;;;;13.07;3.38;;;38.30;28.80;;;;;;4934576;29;20126;-86
2022/07/23 12:43:32;;;;;;;;;;;38.40;28.20;;;;;;4935137;29;20119;-87
2022/07/23 12:46:05;;;;;;;7.78;3.75;;;38.40;29.10;;;;;;4950994;28;19982;-88
2022/07/23 12:48:50;;;;;;;7.68;3.10;;;38.50;29.30;;;;;;4935583;29;20023;-87